This is the latest recevied weather packets stored in our database for station/object OH6LSL. If no packets are shown the sender has not sent any weather packets the latest 10 day(s).
| Time | Temp. | Humidity | Pressure | Rain* | Wind** | Luminosity | Snow |
|---|---|---|---|---|---|---|---|
| 1777691112 | 5° C | 52% | 1004.5 hPa | 0 mm | - | 23 W/m² | - |
| 1777690510 | 5° C | 52% | 1004.9 hPa | 0 mm | - | 19 W/m² | - |
| 1777689886 | 4.44° C | 52% | 1005.2 hPa | 0 mm | - | 16 W/m² | - |
| 1777688677 | 4.44° C | 52% | 1005.4 hPa | 0 mm | - | 7 W/m² | - |
| 1777688100 | 4.44° C | 52% | 1005.4 hPa | 0 mm | - | 5 W/m² | - |
| 1777685699 | 5° C | 52% | 1005.8 hPa | 0 mm | - | 0 W/m² | - |
| 1777683881 | 5.56° C | 52% | 1006.2 hPa | 0 mm | - | 0 W/m² | - |
| 1777683279 | 5.56° C | 52% | 1006.4 hPa | 0 mm | - | 0 W/m² | - |
| 1777682083 | 5.56° C | 52% | 1006.5 hPa | 0 mm | - | 0 W/m² | - |
| 1777677888 | 5° C | 59% | 1007.3 hPa | 0 mm | - | 0 W/m² | - |
| 1777677288 | 5° C | 60% | 1007.4 hPa | 0 mm | - | 0 W/m² | - |
| 1777676689 | 5° C | 60% | 1007.4 hPa | 0 mm | - | 0 W/m² | - |
| 1777674875 | 5° C | 64% | 1007.8 hPa | 0 mm | - | 0 W/m² | - |
| 1777672478 | 6.11° C | 65% | 1008.4 hPa | 0 mm | - | 0 W/m² | - |
| 1777670682 | 5.56° C | 65% | 1008.5 hPa | 0 mm | - | 0 W/m² | - |
| 1777668884 | 6.11° C | 65% | 1008.9 hPa | 0 mm | - | 0 W/m² | - |
| 1777665291 | 7.22° C | 62% | 1009.4 hPa | 0 mm | - | 0 W/m² | - |
| 1777664073 | 7.22° C | 60% | 1009.5 hPa | 0 mm | - | 0 W/m² | - |
| 1777658085 | 11.11° C | 43% | 1009.2 hPa | 0 mm | - | 16 W/m² | - |
| 1777656309 | 11.67° C | 43% | 1009.4 hPa | 0 mm | - | 26 W/m² | - |
| 1777655086 | 12.22° C | 44% | 1009.6 hPa | 0 mm | - | 28 W/m² | - |
| 1777654486 | 12.22° C | 44% | 1009.6 hPa | 0 mm | - | 33 W/m² | - |
| 1777650890 | 13.33° C | 42% | 1010 hPa | 0 mm | - | 62 W/m² | - |
| 1777649111 | 14.44° C | 40% | 1010.3 hPa | 0 mm | - | 213 W/m² | - |
| 1777645492 | 15° C | 39% | 1010.5 hPa | 0 mm | - | 167 W/m² | - |
* Rain latest hour (hover to see other rain measurements)
** Current wind speed in m/s (hover to see current wind gust speed)